sensor_id;sensor_type;location;lat;lon;timestamp;P1;durP1;ratioP1;P2;durP2;ratioP2
12826;SDS011;66927;48.812;9.118;2023-07-02T00:01:31;3.10;;;2.87;;
12826;SDS011;66927;48.812;9.118;2023-07-02T00:03:57;4.13;;;3.10;;
12826;SDS011;66927;48.812;9.118;2023-07-02T00:06:22;4.13;;;2.83;;
12826;SDS011;66927;48.812;9.118;2023-07-02T00:08:48;3.70;;;2.80;;
12826;SDS011;66927;48.812;9.118;2023-07-02T00:11:15;4.23;;;2.70;;
12826;SDS011;66927;48.812;9.118;2023-07-02T00:13:41;3.73;;;2.87;;
12826;SDS011;66927;48.812;9.118;2023-07-02T00:16:06;3.10;;;2.67;;
12826;SDS011;66927;48.812;9.118;2023-07-02T00:18:32;3.33;;;3.03;;
12826;SDS011;66927;48.812;9.118;2023-07-02T00:21:00;3.33;;;2.60;;
12826;SDS011;66927;48.812;9.118;2023-07-02T00:23:29;3.10;;;2.80;;
12826;SDS011;66927;48.812;9.118;2023-07-02T00:26:01;6.50;;;2.70;;
12826;SDS011;66927;48.812;9.118;2023-07-02T00:28:27;3.23;;;2.57;;
12826;SDS011;66927;48.812;9.118;2023-07-02T00:30:52;3.20;;;2.67;;
12826;SDS011;66927;48.812;9.118;2023-07-02T00:33:18;3.03;;;2.73;;
12826;SDS011;66927;48.812;9.118;2023-07-02T00:35:43;3.80;;;2.60;;
12826;SDS011;66927;48.812;9.118;2023-07-02T00:38:09;3.30;;;3.00;;
12826;SDS011;66927;48.812;9.118;2023-07-02T00:40:34;4.17;;;2.37;;
12826;SDS011;66927;48.812;9.118;2023-07-02T00:43:02;3.20;;;2.70;;
12826;SDS011;66927;48.812;9.118;2023-07-02T00:45:27;2.63;;;2.33;;
12826;SDS011;66927;48.812;9.118;2023-07-02T00:47:54;2.63;;;2.43;;
12826;SDS011;66927;48.812;9.118;2023-07-02T00:50:21;3.87;;;2.60;;
12826;SDS011;66927;48.812;9.118;2023-07-02T00:52:47;3.67;;;2.70;;
12826;SDS011;66927;48.812;9.118;2023-07-02T00:55:14;3.60;;;2.60;;
12826;SDS011;66927;48.812;9.118;2023-07-02T00:57:42;3.13;;;2.60;;
12826;SDS011;66927;48.812;9.118;2023-07-02T01:00:12;3.50;;;2.30;;
12826;SDS011;66927;48.812;9.118;2023-07-02T01:02:38;3.70;;;2.40;;
12826;SDS011;66927;48.812;9.118;2023-07-02T01:05:09;4.17;;;2.40;;
12826;SDS011;66927;48.812;9.118;2023-07-02T01:07:38;2.30;;;2.07;;
12826;SDS011;66927;48.812;9.118;2023-07-02T01:10:05;3.27;;;2.47;;
12826;SDS011;66927;48.812;9.118;2023-07-02T01:12:34;2.83;;;2.60;;
12826;SDS011;66927;48.812;9.118;2023-07-02T01:15:02;3.23;;;2.70;;
12826;SDS011;66927;48.812;9.118;2023-07-02T01:17:30;3.07;;;2.30;;
12826;SDS011;66927;48.812;9.118;2023-07-02T01:20:07;2.50;;;2.30;;
12826;SDS011;66927;48.812;9.118;2023-07-02T01:22:34;2.93;;;2.63;;
12826;SDS011;66927;48.812;9.118;2023-07-02T01:25:02;3.10;;;2.10;;
12826;SDS011;66927;48.812;9.118;2023-07-02T01:27:30;2.73;;;2.30;;
12826;SDS011;66927;48.812;9.118;2023-07-02T01:29:56;2.97;;;2.67;;
12826;SDS011;66927;48.812;9.118;2023-07-02T01:32:22;2.93;;;2.60;;
12826;SDS011;66927;48.812;9.118;2023-07-02T01:34:48;3.37;;;2.70;;
12826;SDS011;66927;48.812;9.118;2023-07-02T01:37:15;2.80;;;2.60;;
12826;SDS011;66927;48.812;9.118;2023-07-02T01:39:41;3.10;;;2.80;;
12826;SDS011;66927;48.812;9.118;2023-07-02T01:44:41;2.20;;;2.00;;
12826;SDS011;66927;48.812;9.118;2023-07-02T01:47:08;3.10;;;2.40;;
12826;SDS011;66927;48.812;9.118;2023-07-02T01:49:34;3.83;;;2.40;;
12826;SDS011;66927;48.812;9.118;2023-07-02T01:52:01;3.57;;;2.40;;
12826;SDS011;66927;48.812;9.118;2023-07-02T01:54:27;3.03;;;2.50;;
12826;SDS011;66927;48.812;9.118;2023-07-02T01:56:53;2.37;;;2.17;;
12826;SDS011;66927;48.812;9.118;2023-07-02T01:59:20;4.20;;;2.50;;
12826;SDS011;66927;48.812;9.118;2023-07-02T02:01:45;3.37;;;2.80;;
12826;SDS011;66927;48.812;9.118;2023-07-02T02:04:11;2.50;;;2.30;;
12826;SDS011;66927;48.812;9.118;2023-07-02T02:06:37;2.70;;;2.40;;
12826;SDS011;66927;48.812;9.118;2023-07-02T02:09:03;3.10;;;2.67;;
12826;SDS011;66927;48.812;9.118;2023-07-02T02:11:30;3.77;;;2.67;;
12826;SDS011;66927;48.812;9.118;2023-07-02T02:13:59;3.30;;;2.60;;
12826;SDS011;66927;48.812;9.118;2023-07-02T02:16:26;4.50;;;2.53;;
12826;SDS011;66927;48.812;9.118;2023-07-02T02:18:52;3.90;;;2.40;;
12826;SDS011;66927;48.812;9.118;2023-07-02T02:21:19;3.10;;;2.13;;
12826;SDS011;66927;48.812;9.118;2023-07-02T02:23:48;2.77;;;2.17;;
12826;SDS011;66927;48.812;9.118;2023-07-02T02:26:15;3.13;;;2.53;;
12826;SDS011;66927;48.812;9.118;2023-07-02T02:28:41;3.47;;;2.37;;
12826;SDS011;66927;48.812;9.118;2023-07-02T02:31:07;3.97;;;2.57;;
12826;SDS011;66927;48.812;9.118;2023-07-02T02:33:33;2.40;;;2.20;;
12826;SDS011;66927;48.812;9.118;2023-07-02T02:36:00;2.67;;;2.13;;
12826;SDS011;66927;48.812;9.118;2023-07-02T02:38:26;3.70;;;2.60;;
12826;SDS011;66927;48.812;9.118;2023-07-02T02:40:53;2.70;;;2.30;;
12826;SDS011;66927;48.812;9.118;2023-07-02T02:43:19;2.73;;;2.30;;
12826;SDS011;66927;48.812;9.118;2023-07-02T02:45:45;2.90;;;2.60;;
12826;SDS011;66927;48.812;9.118;2023-07-02T02:48:12;3.40;;;2.37;;
12826;SDS011;66927;48.812;9.118;2023-07-02T02:50:39;2.80;;;2.33;;
12826;SDS011;66927;48.812;9.118;2023-07-02T02:53:06;4.17;;;2.40;;
12826;SDS011;66927;48.812;9.118;2023-07-02T02:55:32;3.47;;;2.17;;
12826;SDS011;66927;48.812;9.118;2023-07-02T02:57:59;2.93;;;2.40;;
12826;SDS011;66927;48.812;9.118;2023-07-02T03:00:25;3.93;;;2.33;;
12826;SDS011;66927;48.812;9.118;2023-07-02T03:02:51;5.80;;;2.57;;
12826;SDS011;66927;48.812;9.118;2023-07-02T03:05:17;2.77;;;2.47;;
12826;SDS011;66927;48.812;9.118;2023-07-02T03:07:42;5.53;;;2.77;;
12826;SDS011;66927;48.812;9.118;2023-07-02T03:10:09;6.77;;;3.03;;
12826;SDS011;66927;48.812;9.118;2023-07-02T03:12:35;4.07;;;2.67;;
12826;SDS011;66927;48.812;9.118;2023-07-02T03:15:00;5.37;;;2.63;;
12826;SDS011;66927;48.812;9.118;2023-07-02T03:17:26;4.13;;;2.80;;
12826;SDS011;66927;48.812;9.118;2023-07-02T03:19:52;6.23;;;3.37;;
12826;SDS011;66927;48.812;9.118;2023-07-02T03:22:17;4.50;;;2.93;;
12826;SDS011;66927;48.812;9.118;2023-07-02T03:24:43;6.30;;;2.90;;
12826;SDS011;66927;48.812;9.118;2023-07-02T03:27:09;4.80;;;2.80;;
12826;SDS011;66927;48.812;9.118;2023-07-02T03:29:34;5.73;;;3.10;;
12826;SDS011;66927;48.812;9.118;2023-07-02T03:32:01;4.27;;;2.93;;
12826;SDS011;66927;48.812;9.118;2023-07-02T03:34:27;3.13;;;2.83;;
12826;SDS011;66927;48.812;9.118;2023-07-02T03:36:53;4.07;;;2.80;;
12826;SDS011;66927;48.812;9.118;2023-07-02T03:39:18;6.97;;;3.17;;
12826;SDS011;66927;48.812;9.118;2023-07-02T03:41:45;4.63;;;2.77;;
12826;SDS011;66927;48.812;9.118;2023-07-02T03:44:11;4.43;;;2.93;;
12826;SDS011;66927;48.812;9.118;2023-07-02T03:46:37;7.03;;;3.57;;
12826;SDS011;66927;48.812;9.118;2023-07-02T03:49:02;3.33;;;2.47;;
12826;SDS011;66927;48.812;9.118;2023-07-02T03:51:28;5.73;;;3.30;;
12826;SDS011;66927;48.812;9.118;2023-07-02T03:53:55;5.57;;;3.43;;
12826;SDS011;66927;48.812;9.118;2023-07-02T03:56:20;4.13;;;3.17;;
12826;SDS011;66927;48.812;9.118;2023-07-02T03:58:47;6.83;;;3.40;;
12826;SDS011;66927;48.812;9.118;2023-07-02T04:01:12;4.13;;;3.03;;
12826;SDS011;66927;48.812;9.118;2023-07-02T04:03:38;4.77;;;3.30;;
12826;SDS011;66927;48.812;9.118;2023-07-02T04:06:04;6.00;;;3.40;;
12826;SDS011;66927;48.812;9.118;2023-07-02T04:08:32;5.60;;;3.40;;
12826;SDS011;66927;48.812;9.118;2023-07-02T04:10:59;5.30;;;3.03;;
12826;SDS011;66927;48.812;9.118;2023-07-02T04:13:25;4.63;;;3.40;;
12826;SDS011;66927;48.812;9.118;2023-07-02T04:15:51;5.00;;;3.37;;
12826;SDS011;66927;48.812;9.118;2023-07-02T04:18:16;4.60;;;3.57;;
12826;SDS011;66927;48.812;9.118;2023-07-02T04:20:42;4.67;;;3.97;;
12826;SDS011;66927;48.812;9.118;2023-07-02T04:23:09;6.80;;;3.87;;
12826;SDS011;66927;48.812;9.118;2023-07-02T04:25:34;7.40;;;4.00;;
12826;SDS011;66927;48.812;9.118;2023-07-02T04:28:00;6.70;;;4.50;;
12826;SDS011;66927;48.812;9.118;2023-07-02T04:30:26;4.87;;;3.40;;
12826;SDS011;66927;48.812;9.118;2023-07-02T04:32:51;6.57;;;4.13;;
12826;SDS011;66927;48.812;9.118;2023-07-02T04:35:17;4.93;;;3.33;;
12826;SDS011;66927;48.812;9.118;2023-07-02T04:37:43;7.33;;;4.30;;
12826;SDS011;66927;48.812;9.118;2023-07-02T04:40:09;5.00;;;4.00;;
12826;SDS011;66927;48.812;9.118;2023-07-02T04:42:37;7.80;;;4.40;;
12826;SDS011;66927;48.812;9.118;2023-07-02T04:45:04;5.80;;;4.30;;
12826;SDS011;66927;48.812;9.118;2023-07-02T04:47:30;6.53;;;4.40;;
12826;SDS011;66927;48.812;9.118;2023-07-02T04:49:56;7.67;;;4.10;;
12826;SDS011;66927;48.812;9.118;2023-07-02T04:52:22;6.13;;;3.70;;
12826;SDS011;66927;48.812;9.118;2023-07-02T04:54:48;6.63;;;4.07;;
12826;SDS011;66927;48.812;9.118;2023-07-02T04:57:13;5.30;;;3.67;;
12826;SDS011;66927;48.812;9.118;2023-07-02T04:59:40;6.00;;;3.80;;
12826;SDS011;66927;48.812;9.118;2023-07-02T05:02:06;5.00;;;3.67;;
12826;SDS011;66927;48.812;9.118;2023-07-02T05:04:34;6.03;;;3.37;;
12826;SDS011;66927;48.812;9.118;2023-07-02T05:07:02;3.73;;;3.30;;
12826;SDS011;66927;48.812;9.118;2023-07-02T05:09:28;3.97;;;3.20;;
12826;SDS011;66927;48.812;9.118;2023-07-02T05:11:54;7.63;;;3.47;;
12826;SDS011;66927;48.812;9.118;2023-07-02T05:14:19;4.33;;;3.13;;
12826;SDS011;66927;48.812;9.118;2023-07-02T05:16:47;4.07;;;3.17;;
12826;SDS011;66927;48.812;9.118;2023-07-02T05:19:12;5.97;;;3.13;;
12826;SDS011;66927;48.812;9.118;2023-07-02T05:21:39;4.87;;;3.07;;
12826;SDS011;66927;48.812;9.118;2023-07-02T05:24:05;6.97;;;3.60;;
12826;SDS011;66927;48.812;9.118;2023-07-02T05:26:31;4.07;;;3.00;;
12826;SDS011;66927;48.812;9.118;2023-07-02T05:28:58;5.10;;;3.70;;
12826;SDS011;66927;48.812;9.118;2023-07-02T05:31:23;9.10;;;4.00;;
12826;SDS011;66927;48.812;9.118;2023-07-02T05:33:49;6.23;;;3.93;;
12826;SDS011;66927;48.812;9.118;2023-07-02T05:36:15;8.50;;;4.27;;
12826;SDS011;66927;48.812;9.118;2023-07-02T05:38:40;4.73;;;3.80;;
12826;SDS011;66927;48.812;9.118;2023-07-02T05:41:06;7.30;;;4.60;;
12826;SDS011;66927;48.812;9.118;2023-07-02T05:43:32;5.63;;;3.73;;
12826;SDS011;66927;48.812;9.118;2023-07-02T05:45:58;8.63;;;4.33;;
12826;SDS011;66927;48.812;9.118;2023-07-02T05:48:27;6.60;;;4.40;;
12826;SDS011;66927;48.812;9.118;2023-07-02T05:50:52;8.30;;;4.77;;
12826;SDS011;66927;48.812;9.118;2023-07-02T05:53:18;8.20;;;5.13;;
12826;SDS011;66927;48.812;9.118;2023-07-02T05:55:44;7.67;;;4.73;;
12826;SDS011;66927;48.812;9.118;2023-07-02T05:58:10;8.73;;;5.70;;
12826;SDS011;66927;48.812;9.118;2023-07-02T06:00:36;7.17;;;4.53;;
12826;SDS011;66927;48.812;9.118;2023-07-02T06:03:02;7.17;;;4.83;;
12826;SDS011;66927;48.812;9.118;2023-07-02T06:05:28;7.90;;;4.70;;
12826;SDS011;66927;48.812;9.118;2023-07-02T06:07:53;6.10;;;4.77;;
12826;SDS011;66927;48.812;9.118;2023-07-02T06:10:19;11.70;;;5.13;;
12826;SDS011;66927;48.812;9.118;2023-07-02T06:12:45;9.33;;;4.80;;
12826;SDS011;66927;48.812;9.118;2023-07-02T06:15:11;10.23;;;5.60;;
12826;SDS011;66927;48.812;9.118;2023-07-02T06:17:36;8.90;;;6.30;;
12826;SDS011;66927;48.812;9.118;2023-07-02T06:20:03;7.73;;;5.67;;
12826;SDS011;66927;48.812;9.118;2023-07-02T06:22:32;11.20;;;6.37;;
12826;SDS011;66927;48.812;9.118;2023-07-02T06:24:58;10.90;;;6.40;;
12826;SDS011;66927;48.812;9.118;2023-07-02T06:27:23;11.00;;;7.47;;
12826;SDS011;66927;48.812;9.118;2023-07-02T06:29:49;12.87;;;7.43;;
12826;SDS011;66927;48.812;9.118;2023-07-02T06:32:16;11.73;;;7.53;;
12826;SDS011;66927;48.812;9.118;2023-07-02T06:34:42;14.40;;;7.73;;
12826;SDS011;66927;48.812;9.118;2023-07-02T06:37:08;12.47;;;7.57;;
12826;SDS011;66927;48.812;9.118;2023-07-02T06:39:33;12.17;;;7.53;;
12826;SDS011;66927;48.812;9.118;2023-07-02T06:41:59;11.60;;;7.77;;
12826;SDS011;66927;48.812;9.118;2023-07-02T06:44:24;11.93;;;7.73;;
12826;SDS011;66927;48.812;9.118;2023-07-02T06:46:50;10.70;;;7.40;;
12826;SDS011;66927;48.812;9.118;2023-07-02T06:49:16;10.83;;;7.27;;
12826;SDS011;66927;48.812;9.118;2023-07-02T06:51:41;13.50;;;8.07;;
12826;SDS011;66927;48.812;9.118;2023-07-02T06:54:07;11.93;;;7.53;;
12826;SDS011;66927;48.812;9.118;2023-07-02T06:56:33;11.63;;;8.33;;
12826;SDS011;66927;48.812;9.118;2023-07-02T06:58:59;15.73;;;7.73;;
12826;SDS011;66927;48.812;9.118;2023-07-02T07:01:26;11.53;;;7.53;;
12826;SDS011;66927;48.812;9.118;2023-07-02T07:03:51;13.73;;;8.67;;
12826;SDS011;66927;48.812;9.118;2023-07-02T07:06:17;11.00;;;8.57;;
12826;SDS011;66927;48.812;9.118;2023-07-02T07:08:43;14.97;;;9.07;;
12826;SDS011;66927;48.812;9.118;2023-07-02T07:11:08;13.30;;;8.87;;
12826;SDS011;66927;48.812;9.118;2023-07-02T07:13:34;12.20;;;8.33;;
12826;SDS011;66927;48.812;9.118;2023-07-02T07:15:59;15.20;;;9.67;;
12826;SDS011;66927;48.812;9.118;2023-07-02T07:18:25;13.77;;;9.47;;
12826;SDS011;66927;48.812;9.118;2023-07-02T07:20:51;17.80;;;10.67;;
12826;SDS011;66927;48.812;9.118;2023-07-02T07:23:17;16.73;;;11.00;;
12826;SDS011;66927;48.812;9.118;2023-07-02T07:25:43;17.30;;;10.47;;
12826;SDS011;66927;48.812;9.118;2023-07-02T07:28:09;17.90;;;11.60;;
12826;SDS011;66927;48.812;9.118;2023-07-02T07:30:41;19.50;;;11.30;;
12826;SDS011;66927;48.812;9.118;2023-07-02T07:33:07;14.87;;;10.37;;
12826;SDS011;66927;48.812;9.118;2023-07-02T07:35:33;17.53;;;10.77;;
12826;SDS011;66927;48.812;9.118;2023-07-02T07:37:58;16.07;;;11.67;;
12826;SDS011;66927;48.812;9.118;2023-07-02T07:40:24;19.10;;;11.37;;
12826;SDS011;66927;48.812;9.118;2023-07-02T07:42:50;18.43;;;11.53;;
12826;SDS011;66927;48.812;9.118;2023-07-02T07:45:15;17.20;;;11.70;;
12826;SDS011;66927;48.812;9.118;2023-07-02T07:47:41;17.73;;;11.93;;
12826;SDS011;66927;48.812;9.118;2023-07-02T07:50:07;17.10;;;11.17;;
12826;SDS011;66927;48.812;9.118;2023-07-02T07:52:35;15.13;;;11.33;;
12826;SDS011;66927;48.812;9.118;2023-07-02T07:55:02;19.70;;;11.87;;
12826;SDS011;66927;48.812;9.118;2023-07-02T07:57:28;17.93;;;12.53;;
12826;SDS011;66927;48.812;9.118;2023-07-02T07:59:53;20.23;;;12.00;;
12826;SDS011;66927;48.812;9.118;2023-07-02T08:02:19;18.37;;;12.47;;
12826;SDS011;66927;48.812;9.118;2023-07-02T08:04:47;15.93;;;11.83;;
12826;SDS011;66927;48.812;9.118;2023-07-02T08:07:13;17.97;;;12.60;;
12826;SDS011;66927;48.812;9.118;2023-07-02T08:09:39;33.07;;;13.20;;
12826;SDS011;66927;48.812;9.118;2023-07-02T08:12:05;18.03;;;12.50;;
12826;SDS011;66927;48.812;9.118;2023-07-02T08:14:31;20.27;;;12.70;;
12826;SDS011;66927;48.812;9.118;2023-07-02T08:16:57;18.10;;;12.90;;
12826;SDS011;66927;48.812;9.118;2023-07-02T08:19:22;18.63;;;13.07;;
12826;SDS011;66927;48.812;9.118;2023-07-02T08:21:48;19.10;;;12.97;;
12826;SDS011;66927;48.812;9.118;2023-07-02T08:24:14;17.23;;;12.47;;
12826;SDS011;66927;48.812;9.118;2023-07-02T08:26:39;17.17;;;12.73;;
12826;SDS011;66927;48.812;9.118;2023-07-02T08:29:05;17.27;;;11.97;;
12826;SDS011;66927;48.812;9.118;2023-07-02T08:31:30;16.23;;;11.37;;
12826;SDS011;66927;48.812;9.118;2023-07-02T08:33:56;17.37;;;11.67;;
12826;SDS011;66927;48.812;9.118;2023-07-02T08:36:22;16.60;;;12.00;;
12826;SDS011;66927;48.812;9.118;2023-07-02T08:38:48;15.90;;;11.70;;
12826;SDS011;66927;48.812;9.118;2023-07-02T08:41:13;14.87;;;11.40;;
12826;SDS011;66927;48.812;9.118;2023-07-02T08:43:39;17.13;;;11.87;;
12826;SDS011;66927;48.812;9.118;2023-07-02T08:46:05;17.87;;;12.20;;
12826;SDS011;66927;48.812;9.118;2023-07-02T08:48:32;16.47;;;12.23;;
12826;SDS011;66927;48.812;9.118;2023-07-02T08:50:59;16.40;;;11.47;;
12826;SDS011;66927;48.812;9.118;2023-07-02T08:53:25;14.67;;;11.40;;
12826;SDS011;66927;48.812;9.118;2023-07-02T08:55:55;16.57;;;11.47;;
12826;SDS011;66927;48.812;9.118;2023-07-02T08:58:21;16.33;;;11.63;;
12826;SDS011;66927;48.812;9.118;2023-07-02T09:03:32;18.90;;;12.03;;
12826;SDS011;66927;48.812;9.118;2023-07-02T09:05:58;15.73;;;11.30;;
12826;SDS011;66927;48.812;9.118;2023-07-02T09:08:27;15.63;;;11.57;;
12826;SDS011;66927;48.812;9.118;2023-07-02T09:11:05;16.83;;;11.40;;
12826;SDS011;66927;48.812;9.118;2023-07-02T09:13:51;15.77;;;11.37;;
12826;SDS011;66927;48.812;9.118;2023-07-02T09:16:30;17.97;;;12.70;;
12826;SDS011;66927;48.812;9.118;2023-07-02T09:19:16;15.17;;;12.30;;
12826;SDS011;66927;48.812;9.118;2023-07-02T09:21:43;15.90;;;12.17;;
12826;SDS011;66927;48.812;9.118;2023-07-02T09:24:17;18.60;;;11.13;;
12826;SDS011;66927;48.812;9.118;2023-07-02T09:26:49;15.77;;;11.33;;
12826;SDS011;66927;48.812;9.118;2023-07-02T09:29:24;16.07;;;11.20;;
12826;SDS011;66927;48.812;9.118;2023-07-02T09:31:53;14.63;;;11.03;;
12826;SDS011;66927;48.812;9.118;2023-07-02T09:34:32;14.87;;;12.17;;
12826;SDS011;66927;48.812;9.118;2023-07-02T09:37:02;18.90;;;11.87;;
12826;SDS011;66927;48.812;9.118;2023-07-02T09:39:30;19.30;;;12.27;;
12826;SDS011;66927;48.812;9.118;2023-07-02T09:42:00;15.73;;;12.07;;
12826;SDS011;66927;48.812;9.118;2023-07-02T09:44:28;15.93;;;12.33;;
12826;SDS011;66927;48.812;9.118;2023-07-02T09:47:04;16.57;;;11.97;;
12826;SDS011;66927;48.812;9.118;2023-07-02T09:49:34;14.80;;;11.60;;
12826;SDS011;66927;48.812;9.118;2023-07-02T09:54:31;16.53;;;11.57;;
12826;SDS011;66927;48.812;9.118;2023-07-02T09:56:58;16.77;;;11.50;;
12826;SDS011;66927;48.812;9.118;2023-07-02T09:59:24;18.33;;;12.00;;
12826;SDS011;66927;48.812;9.118;2023-07-02T10:01:50;16.40;;;12.17;;
12826;SDS011;66927;48.812;9.118;2023-07-02T10:04:17;12.47;;;11.13;;
12826;SDS011;66927;48.812;9.118;2023-07-02T10:06:47;14.23;;;11.83;;
12826;SDS011;66927;48.812;9.118;2023-07-02T10:09:20;15.13;;;11.37;;
12826;SDS011;66927;48.812;9.118;2023-07-02T10:11:46;23.50;;;19.43;;
12826;SDS011;66927;48.812;9.118;2023-07-02T10:14:15;20.47;;;14.17;;
12826;SDS011;66927;48.812;9.118;2023-07-02T10:19:16;13.33;;;10.77;;
12826;SDS011;66927;48.812;9.118;2023-07-02T10:21:42;17.03;;;13.07;;
12826;SDS011;66927;48.812;9.118;2023-07-02T10:29:19;14.50;;;11.23;;
12826;SDS011;66927;48.812;9.118;2023-07-02T10:31:49;17.87;;;11.67;;
12826;SDS011;66927;48.812;9.118;2023-07-02T10:34:35;16.23;;;12.33;;
12826;SDS011;66927;48.812;9.118;2023-07-02T10:37:01;14.70;;;12.23;;
12826;SDS011;66927;48.812;9.118;2023-07-02T10:39:28;16.40;;;11.17;;
12826;SDS011;66927;48.812;9.118;2023-07-02T10:42:06;20.20;;;12.37;;
12826;SDS011;66927;48.812;9.118;2023-07-02T10:44:46;14.17;;;11.83;;
12826;SDS011;66927;48.812;9.118;2023-07-02T10:47:14;17.13;;;12.80;;
12826;SDS011;66927;48.812;9.118;2023-07-02T10:49:40;16.77;;;12.80;;
12826;SDS011;66927;48.812;9.118;2023-07-02T10:52:06;16.40;;;12.30;;
12826;SDS011;66927;48.812;9.118;2023-07-02T10:54:39;16.37;;;12.57;;
12826;SDS011;66927;48.812;9.118;2023-07-02T10:57:18;15.93;;;13.13;;
12826;SDS011;66927;48.812;9.118;2023-07-02T10:59:47;17.57;;;14.63;;
12826;SDS011;66927;48.812;9.118;2023-07-02T11:04:48;16.77;;;12.30;;
12826;SDS011;66927;48.812;9.118;2023-07-02T11:07:22;16.93;;;12.80;;
12826;SDS011;66927;48.812;9.118;2023-07-02T11:09:51;13.07;;;10.57;;
12826;SDS011;66927;48.812;9.118;2023-07-02T11:12:17;13.77;;;11.47;;
12826;SDS011;66927;48.812;9.118;2023-07-02T11:14:51;22.00;;;12.53;;
12826;SDS011;66927;48.812;9.118;2023-07-02T11:17:24;14.97;;;12.33;;
12826;SDS011;66927;48.812;9.118;2023-07-02T11:19:50;16.37;;;12.37;;
12826;SDS011;66927;48.812;9.118;2023-07-02T11:24:51;17.47;;;12.50;;
12826;SDS011;66927;48.812;9.118;2023-07-02T11:27:22;15.80;;;12.07;;
12826;SDS011;66927;48.812;9.118;2023-07-02T11:29:58;13.20;;;10.53;;
12826;SDS011;66927;48.812;9.118;2023-07-02T11:32:24;13.60;;;11.37;;
12826;SDS011;66927;48.812;9.118;2023-07-02T11:34:53;15.10;;;11.67;;
12826;SDS011;66927;48.812;9.118;2023-07-02T11:37:19;16.53;;;11.97;;
12826;SDS011;66927;48.812;9.118;2023-07-02T12:00:41;18.43;;;16.10;;
12826;SDS011;66927;48.812;9.118;2023-07-02T12:03:06;16.27;;;12.30;;
12826;SDS011;66927;48.812;9.118;2023-07-02T12:13:21;16.93;;;12.07;;
12826;SDS011;66927;48.812;9.118;2023-07-02T12:15:47;17.43;;;12.20;;
12826;SDS011;66927;48.812;9.118;2023-07-02T12:18:14;15.03;;;12.07;;
12826;SDS011;66927;48.812;9.118;2023-07-02T12:20:40;15.10;;;12.13;;
12826;SDS011;66927;48.812;9.118;2023-07-02T12:23:06;14.70;;;12.20;;
12826;SDS011;66927;48.812;9.118;2023-07-02T12:25:36;20.97;;;15.23;;
12826;SDS011;66927;48.812;9.118;2023-07-02T12:30:37;15.67;;;12.57;;
12826;SDS011;66927;48.812;9.118;2023-07-02T12:33:03;19.63;;;13.43;;
12826;SDS011;66927;48.812;9.118;2023-07-02T12:35:30;19.57;;;13.70;;
12826;SDS011;66927;48.812;9.118;2023-07-02T12:37:55;17.43;;;12.63;;
12826;SDS011;66927;48.812;9.118;2023-07-02T12:40:21;16.27;;;12.63;;
12826;SDS011;66927;48.812;9.118;2023-07-02T12:42:47;15.07;;;12.60;;
12826;SDS011;66927;48.812;9.118;2023-07-02T12:53:01;16.70;;;12.40;;
12826;SDS011;66927;48.812;9.118;2023-07-02T12:55:26;14.83;;;12.17;;
12826;SDS011;66927;48.812;9.118;2023-07-02T12:57:52;16.00;;;12.23;;
12826;SDS011;66927;48.812;9.118;2023-07-02T13:00:19;13.53;;;11.73;;
12826;SDS011;66927;48.812;9.118;2023-07-02T13:02:45;16.87;;;12.87;;
12826;SDS011;66927;48.812;9.118;2023-07-02T13:05:12;16.03;;;12.67;;
12826;SDS011;66927;48.812;9.118;2023-07-02T13:07:38;15.03;;;12.00;;
12826;SDS011;66927;48.812;9.118;2023-07-02T13:10:04;19.27;;;12.87;;
12826;SDS011;66927;48.812;9.118;2023-07-02T13:12:31;15.80;;;12.00;;
12826;SDS011;66927;48.812;9.118;2023-07-02T13:14:58;14.80;;;12.57;;
12826;SDS011;66927;48.812;9.118;2023-07-02T13:17:24;15.80;;;12.50;;
12826;SDS011;66927;48.812;9.118;2023-07-02T13:19:49;18.33;;;13.07;;
12826;SDS011;66927;48.812;9.118;2023-07-02T13:22:15;13.87;;;11.80;;
12826;SDS011;66927;48.812;9.118;2023-07-02T13:24:41;15.07;;;11.50;;
12826;SDS011;66927;48.812;9.118;2023-07-02T13:27:09;16.63;;;12.40;;
12826;SDS011;66927;48.812;9.118;2023-07-02T13:29:40;17.23;;;12.43;;
12826;SDS011;66927;48.812;9.118;2023-07-02T13:32:06;13.50;;;11.40;;
12826;SDS011;66927;48.812;9.118;2023-07-02T13:34:32;16.30;;;12.80;;
12826;SDS011;66927;48.812;9.118;2023-07-02T13:36:58;17.83;;;12.97;;
12826;SDS011;66927;48.812;9.118;2023-07-02T13:39:24;14.80;;;11.80;;
12826;SDS011;66927;48.812;9.118;2023-07-02T13:44:25;14.53;;;11.97;;
12826;SDS011;66927;48.812;9.118;2023-07-02T13:46:51;15.07;;;12.60;;
12826;SDS011;66927;48.812;9.118;2023-07-02T13:49:18;17.23;;;12.87;;
12826;SDS011;66927;48.812;9.118;2023-07-02T13:51:44;14.87;;;12.43;;
12826;SDS011;66927;48.812;9.118;2023-07-02T13:54:11;17.03;;;12.00;;
12826;SDS011;66927;48.812;9.118;2023-07-02T13:56:39;15.77;;;12.67;;
12826;SDS011;66927;48.812;9.118;2023-07-02T13:59:05;14.10;;;12.40;;
12826;SDS011;66927;48.812;9.118;2023-07-02T14:06:42;13.07;;;11.53;;
12826;SDS011;66927;48.812;9.118;2023-07-02T14:09:08;16.47;;;12.80;;
12826;SDS011;66927;48.812;9.118;2023-07-02T14:11:35;15.90;;;12.30;;
12826;SDS011;66927;48.812;9.118;2023-07-02T14:14:06;14.97;;;12.63;;
12826;SDS011;66927;48.812;9.118;2023-07-02T14:16:33;14.57;;;12.13;;
12826;SDS011;66927;48.812;9.118;2023-07-02T14:19:03;15.00;;;12.77;;
12826;SDS011;66927;48.812;9.118;2023-07-02T14:21:29;17.80;;;11.50;;
12826;SDS011;66927;48.812;9.118;2023-07-02T14:23:54;14.03;;;12.50;;
12826;SDS011;66927;48.812;9.118;2023-07-02T14:26:20;14.53;;;12.17;;
12826;SDS011;66927;48.812;9.118;2023-07-02T14:28:46;16.30;;;11.73;;
12826;SDS011;66927;48.812;9.118;2023-07-02T14:31:11;13.83;;;12.10;;
12826;SDS011;66927;48.812;9.118;2023-07-02T14:33:37;14.93;;;12.37;;
12826;SDS011;66927;48.812;9.118;2023-07-02T14:36:03;14.07;;;12.33;;
12826;SDS011;66927;48.812;9.118;2023-07-02T14:38:30;13.83;;;12.27;;
12826;SDS011;66927;48.812;9.118;2023-07-02T14:40:56;13.35;;;11.95;;
12826;SDS011;66927;48.812;9.118;2023-07-02T14:43:23;15.77;;;12.05;;
12826;SDS011;66927;48.812;9.118;2023-07-02T14:56:12;16.47;;;12.90;;
12826;SDS011;66927;48.812;9.118;2023-07-02T14:58:38;17.03;;;13.23;;
12826;SDS011;66927;48.812;9.118;2023-07-02T15:01:06;13.82;;;12.25;;
12826;SDS011;66927;48.812;9.118;2023-07-02T15:03:32;17.10;;;12.87;;
12826;SDS011;66927;48.812;9.118;2023-07-02T15:06:08;14.33;;;12.60;;
12826;SDS011;66927;48.812;9.118;2023-07-02T15:08:38;15.20;;;12.18;;
12826;SDS011;66927;48.812;9.118;2023-07-02T15:11:04;15.75;;;12.65;;
12826;SDS011;66927;48.812;9.118;2023-07-02T15:13:30;14.03;;;12.23;;
12826;SDS011;66927;48.812;9.118;2023-07-02T15:15:56;15.73;;;12.32;;
12826;SDS011;66927;48.812;9.118;2023-07-02T15:18:22;15.33;;;12.70;;
12826;SDS011;66927;48.812;9.118;2023-07-02T15:20:51;16.05;;;13.07;;
12826;SDS011;66927;48.812;9.118;2023-07-02T15:23:18;16.93;;;14.93;;
12826;SDS011;66927;48.812;9.118;2023-07-02T15:26:06;18.23;;;14.77;;
12826;SDS011;66927;48.812;9.118;2023-07-02T15:28:31;12.70;;;11.40;;
12826;SDS011;66927;48.812;9.118;2023-07-02T15:30:59;12.98;;;11.55;;
12826;SDS011;66927;48.812;9.118;2023-07-02T15:33:33;13.48;;;12.07;;
12826;SDS011;66927;48.812;9.118;2023-07-02T15:36:00;16.57;;;13.00;;
12826;SDS011;66927;48.812;9.118;2023-07-02T15:38:27;12.80;;;11.45;;
12826;SDS011;66927;48.812;9.118;2023-07-02T15:41:04;13.07;;;11.55;;
12826;SDS011;66927;48.812;9.118;2023-07-02T15:44:04;14.50;;;11.75;;
12826;SDS011;66927;48.812;9.118;2023-07-02T15:46:32;19.00;;;12.95;;
12826;SDS011;66927;48.812;9.118;2023-07-02T15:49:01;14.00;;;12.50;;
12826;SDS011;66927;48.812;9.118;2023-07-02T15:51:27;15.30;;;12.50;;